CheckWX is a tool to help pilots better visualize weather data.  It is not intended as a substitute for an official pre-flight weather briefing.

06:30:28 UTC

EGPN METAR
Dundee Airport
Dundee, United Kingdom
Current

10 mins ago

EGPN 230620Z 09012KT 9000 FEW015 11/08 Q1003
Observed
Apr-23 @ 06:20 UTC
Wind
  • 090° at 12 KTS
Visibility
8,996 meters
Flight Rules
VFR
Cloud Levels
  • Few at 1,500' AGL
Temperature
11°C / 52°F
Dewpoint
C / 46°F
Humidity
82%
Altimeter
29.62" Hg
Pressure
1002.92 hPa
Previous

40 mins ago

EGPN 230550Z 08012KT 9000 FEW015 10/08 Q1003
Observed
Apr-23 @ 05:50 UTC
Wind
  • 080° at 12 KTS
Visibility
8,996 meters
Flight Rules
VFR
Cloud Levels
  • Few at 1,500' AGL
Temperature
10°C / 50°F
Dewpoint
C / 46°F
Humidity
88%
Altimeter
29.62" Hg
Pressure
1002.92 hPa
Previous

1 hour ago

EGPN 230520Z 08010KT 9000 FEW015 10/07 Q1003
Observed
Apr-23 @ 05:20 UTC
Wind
  • 080° at 10 KTS
Visibility
8,996 meters
Flight Rules
VFR
Cloud Levels
  • Few at 1,500' AGL
Temperature
10°C / 50°F
Dewpoint
C / 45°F
Humidity
82%
Altimeter
29.62" Hg
Pressure
1002.92 hPa